Time;durP1;ratioP1;P1;durP2;ratioP2;P2;SDS_P1;SDS_P2;PMS_P1;PMS_P2;Temp;Humidity;BMP_temperature;BMP_pressure;BME280_temperature;BME280_humidity;BME280_pressure;Samples;Min_cycle;Max_cycle;Signal;HPM_P1;HPM_P2
2023/08/02 00:02:11;;;;;;;19.80;7.82;;;16.40;99.90;;;;;;5078063;28;20606;-72
2023/08/02 00:04:42;;;;;;;17.35;7.30;;;16.50;99.90;;;;;;5074228;28;20687;-72
2023/08/02 00:07:14;;;;;;;17.98;7.97;;;16.60;99.90;;;;;;5079123;28;20195;-72
2023/08/02 00:09:45;;;;;;;14.77;7.53;;;16.70;99.90;;;;;;5093109;28;20191;-71
2023/08/02 00:12:16;;;;;;;19.85;8.00;;;16.70;99.90;;;;;;5085480;28;20191;-72
2023/08/02 00:14:46;;;;;;;13.43;7.18;;;16.70;99.90;;;;;;5068174;28;20640;-71
2023/08/02 00:17:17;;;;;;;19.67;8.77;;;16.50;99.90;;;;;;5074480;28;20225;-72
2023/08/02 00:19:48;;;;;;;21.85;10.95;;;16.50;99.90;;;;;;5071223;28;20200;-71
2023/08/02 00:22:20;;;;;;;19.73;11.27;;;16.40;99.90;;;;;;5066464;28;20563;-72
2023/08/02 00:24:51;;;;;;;22.15;12.15;;;16.40;99.90;;;;;;5055822;28;20558;-71
2023/08/02 00:27:22;;;;;;;23.05;13.13;;;16.30;99.90;;;;;;5052304;28;20185;-71
2023/08/02 00:29:54;;;;;;;26.58;14.00;;;16.30;99.90;;;;;;5052644;28;20299;-71
2023/08/02 00:32:24;;;;;;;25.65;14.50;;;16.30;99.90;;;;;;5052749;28;20569;-73
2023/08/02 00:34:56;;;;;;;22.65;14.10;;;16.30;99.90;;;;;;5053315;28;20201;-74
2023/08/02 00:37:29;;;;;;;28.13;14.15;;;16.30;99.90;;;;;;5052691;28;20213;-74
2023/08/02 00:39:59;;;;;;;35.05;14.70;;;16.30;99.90;;;;;;5059899;28;20256;-72
2023/08/02 00:42:30;;;;;;;26.75;14.10;;;16.30;99.90;;;;;;5072490;28;20193;-74
2023/08/02 00:45:01;;;;;;;28.00;13.45;;;16.40;99.90;;;;;;5072220;28;20208;-73
2023/08/02 00:47:32;;;;;;;24.02;13.18;;;16.50;99.90;;;;;;5072832;28;20216;-72
2023/08/02 00:50:03;;;;;;;22.80;12.35;;;16.60;99.90;;;;;;5057659;28;20205;-71
2023/08/02 00:52:36;;;;;;;21.00;11.77;;;16.60;99.90;;;;;;5070924;28;20289;-72
2023/08/02 00:55:07;;;;;;;21.25;10.90;;;16.60;99.90;;;;;;5058946;28;20193;-72
2023/08/02 00:57:38;;;;;;;25.45;11.43;;;16.60;99.90;;;;;;5060626;28;20693;-71
2023/08/02 01:00:10;;;;;;;20.13;9.38;;;16.60;99.90;;;;;;5066293;28;20545;-72
2023/08/02 01:02:40;;;;;;;17.58;9.23;;;16.60;99.90;;;;;;5072258;28;20239;-72
2023/08/02 01:05:11;;;;;;;24.38;9.38;;;16.60;99.90;;;;;;5071907;28;20274;-71
2023/08/02 01:07:48;;;;;;;17.17;8.15;;;16.70;99.90;;;;;;5052242;28;20194;-72
2023/08/02 01:10:27;;;;;;;19.13;7.63;;;16.70;99.90;;;;;;5054000;28;20632;-72
2023/08/02 01:12:59;;;;;;;11.25;5.55;;;16.70;99.90;;;;;;5056191;28;20640;-71
2023/08/02 01:15:31;;;;;;;18.13;6.40;;;16.80;99.90;;;;;;5055909;28;20209;-72
2023/08/02 01:18:03;;;;;;;13.52;5.68;;;16.80;99.90;;;;;;5055930;28;20586;-72
2023/08/02 01:20:35;;;;;;;12.20;4.80;;;16.90;99.90;;;;;;5055978;28;20217;-73
2023/08/02 01:23:06;;;;;;;10.18;3.38;;;17.00;99.90;;;;;;5055647;28;20204;-74
2023/08/02 01:25:38;;;;;;;11.48;2.85;;;17.10;99.90;;;;;;5055994;28;20681;-74
2023/08/02 01:28:13;;;;;;;15.55;3.95;;;17.20;99.90;;;;;;5064643;28;20189;-74
2023/08/02 01:30:44;;;;;;;13.77;3.50;;;17.40;99.90;;;;;;5075693;28;20203;-74
2023/08/02 01:33:16;;;;;;;10.85;3.95;;;17.50;99.90;;;;;;5075609;28;20196;-72
2023/08/02 01:35:49;;;;;;;11.52;3.60;;;17.60;99.90;;;;;;5055023;28;20559;-72
2023/08/02 01:38:20;;;;;;;10.02;3.40;;;17.70;99.90;;;;;;5077533;28;20699;-72
2023/08/02 01:40:50;;;;;;;14.05;4.05;;;17.80;99.90;;;;;;5075392;28;20204;-72
2023/08/02 01:43:21;;;;;;;10.10;3.53;;;17.80;99.90;;;;;;5075488;28;20193;-72
2023/08/02 01:45:52;;;;;;;13.95;3.78;;;17.90;99.90;;;;;;5080162;28;20215;-72
2023/08/02 01:48:25;;;;;;;10.98;3.95;;;17.90;99.90;;;;;;5095549;28;20203;-72
2023/08/02 01:50:59;;;;;;;11.57;4.05;;;18.00;99.90;;;;;;5068644;28;20190;-71
2023/08/02 01:53:30;;;;;;;12.00;4.13;;;18.00;99.90;;;;;;5055221;28;20194;-72
2023/08/02 01:56:01;;;;;;;13.20;3.63;;;18.10;99.90;;;;;;5055356;28;20193;-71
2023/08/02 01:58:31;;;;;;;13.68;3.92;;;18.10;99.90;;;;;;5058901;28;20204;-73
2023/08/02 02:01:02;;;;;;;11.35;3.35;;;18.10;99.90;;;;;;5074304;28;20196;-72
2023/08/02 02:03:33;;;;;;;14.80;4.85;;;18.10;99.90;;;;;;5075068;28;20241;-72
2023/08/02 02:06:05;;;;;;;11.57;3.58;;;18.20;99.90;;;;;;5070459;28;20496;-73
2023/08/02 02:08:36;;;;;;;10.13;3.80;;;18.10;99.90;;;;;;5055280;28;20186;-72
2023/08/02 02:11:07;;;;;;;13.15;4.20;;;18.10;99.90;;;;;;5058450;28;20193;-71
2023/08/02 02:13:38;;;;;;;14.25;4.13;;;18.20;99.90;;;;;;5065107;28;20223;-71
2023/08/02 02:16:09;;;;;;;11.75;3.55;;;18.20;99.90;;;;;;5074904;28;20192;-74
2023/08/02 02:18:39;;;;;;;16.63;5.90;;;18.30;99.90;;;;;;5074787;28;20223;-75
2023/08/02 02:21:12;;;;;;;12.85;6.13;;;18.30;99.90;;;;;;5073123;28;20192;-73
2023/08/02 02:23:43;;;;;;;15.98;5.63;;;18.40;99.90;;;;;;5074643;28;20644;-75
2023/08/02 02:26:14;;;;;;;21.52;10.52;;;18.40;99.90;;;;;;5074834;28;20320;-74
2023/08/02 02:28:44;;;;;;;12.23;4.63;;;18.50;99.90;;;;;;5074566;28;20192;-75
2023/08/02 02:31:15;;;;;;;19.23;3.97;;;18.50;99.90;;;;;;5074574;28;20192;-74
2023/08/02 02:33:47;;;;;;;11.63;3.63;;;18.50;99.90;;;;;;5074402;28;20192;-77
2023/08/02 02:36:20;;;;;;;16.50;2.92;;;18.60;99.90;;;;;;5062543;28;20202;-81
2023/08/02 02:38:51;;;;;;;11.35;3.30;;;18.60;99.90;;;;;;5054260;28;20217;-76
2023/08/02 02:41:22;;;;;;;12.15;2.90;;;18.60;99.90;;;;;;5053729;28;20196;-77
2023/08/02 02:43:53;;;;;;;11.15;2.78;;;18.60;99.90;;;;;;5055414;28;20189;-74
2023/08/02 02:46:23;;;;;;;9.27;2.45;;;18.60;99.90;;;;;;5068497;28;20194;-75
2023/08/02 02:48:54;;;;;;;10.73;2.80;;;18.60;99.90;;;;;;5065935;28;20280;-72
2023/08/02 02:51:27;;;;;;;10.35;2.50;;;18.60;99.90;;;;;;5071010;28;20200;-80
2023/08/02 02:53:58;;;;;;;8.93;2.65;;;18.60;99.90;;;;;;5054888;28;20200;-81
2023/08/02 02:56:28;;;;;;;35.95;21.42;;;18.60;99.90;;;;;;5053338;28;20197;-81
2023/08/02 02:58:59;;;;;;;13.50;4.80;;;18.60;99.90;;;;;;5059995;28;20213;-75
2023/08/02 03:01:30;;;;;;;13.38;3.08;;;18.60;99.90;;;;;;5053686;28;20285;-82
2023/08/02 03:04:01;;;;;;;12.90;3.95;;;18.50;99.90;;;;;;5056592;28;20235;-84
2023/08/02 03:06:33;;;;;;;11.90;4.60;;;18.50;99.90;;;;;;5054317;28;20224;-73
2023/08/02 03:09:04;;;;;;;9.85;3.58;;;18.40;99.90;;;;;;5061143;28;20201;-81
2023/08/02 03:11:35;;;;;;;9.98;2.50;;;18.40;99.90;;;;;;5058490;28;20193;-78
2023/08/02 03:14:05;;;;;;;8.70;1.88;;;18.40;99.90;;;;;;5058045;28;20197;-80
2023/08/02 03:16:36;;;;;;;8.80;2.30;;;18.30;99.90;;;;;;5056959;28;20856;-79
2023/08/02 03:19:08;;;;;;;13.45;2.60;;;18.30;99.90;;;;;;5062640;28;20213;-81
2023/08/02 03:21:40;;;;;;;13.80;2.28;;;18.30;99.90;;;;;;5055148;28;20194;-84
2023/08/02 03:24:12;;;;;;;10.27;2.20;;;18.20;99.90;;;;;;5062749;28;20708;-72
2023/08/02 03:26:42;;;;;;;9.07;2.10;;;18.20;99.90;;;;;;5052245;28;20239;-77
2023/08/02 03:29:13;;;;;;;8.02;2.00;;;18.20;99.90;;;;;;5053506;28;20671;-82
2023/08/02 03:31:45;;;;;;;12.57;2.58;;;18.10;99.90;;;;;;5063390;28;20196;-72
2023/08/02 03:34:16;;;;;;;10.80;2.28;;;18.10;99.90;;;;;;5063243;28;20201;-77
2023/08/02 03:36:48;;;;;;;12.13;2.30;;;18.10;99.90;;;;;;5071368;28;20197;-74
2023/08/02 03:39:19;;;;;;;8.93;2.03;;;18.10;99.90;;;;;;5055319;28;20221;-83
2023/08/02 03:41:51;;;;;;;15.13;2.63;;;18.10;99.90;;;;;;5051674;28;20193;-76
2023/08/02 03:44:21;;;;;;;13.07;2.92;;;18.10;99.90;;;;;;5052934;28;20198;-82
2023/08/02 03:46:52;;;;;;;14.05;2.78;;;18.00;99.90;;;;;;5053409;28;20196;-81
2023/08/02 03:49:23;;;;;;;11.90;2.50;;;18.00;99.90;;;;;;5057619;28;20201;-80
2023/08/02 03:51:56;;;;;;;10.77;1.95;;;17.90;99.90;;;;;;5064974;28;20197;-80
2023/08/02 03:54:26;;;;;;;12.77;2.30;;;17.90;99.90;;;;;;5056262;28;20201;-81
2023/08/02 03:56:57;;;;;;;9.75;1.90;;;17.80;99.90;;;;;;5070218;28;20574;-82
2023/08/02 03:59:28;;;;;;;7.93;1.77;;;17.80;99.90;;;;;;5058338;28;20220;-83
2023/08/02 04:01:58;;;;;;;9.13;1.92;;;17.70;99.90;;;;;;5071893;28;20196;-77
2023/08/02 04:04:29;;;;;;;10.98;1.70;;;17.70;99.90;;;;;;5059765;28;20551;-81
2023/08/02 04:07:02;;;;;;;8.32;1.63;;;17.60;99.90;;;;;;5071030;28;20203;-76
2023/08/02 04:09:32;;;;;;;9.98;1.67;;;17.60;99.90;;;;;;5055692;28;20580;-76
2023/08/02 04:12:03;;;;;;;10.50;2.08;;;17.70;99.90;;;;;;5054330;28;20181;-72
2023/08/02 04:14:34;;;;;;;12.55;1.85;;;17.70;99.90;;;;;;5060670;28;20220;-76
2023/08/02 04:17:05;;;;;;;8.90;1.63;;;17.70;99.90;;;;;;5064307;28;20254;-72
2023/08/02 04:19:36;;;;;;;20.15;3.50;;;17.80;99.90;;;;;;5069597;28;20217;-81
2023/08/02 04:22:08;;;;;;;8.57;1.80;;;17.80;99.90;;;;;;5061632;28;20243;-79
2023/08/02 04:24:39;;;;;;;12.07;2.08;;;17.90;99.90;;;;;;5069775;28;20235;-82
2023/08/02 04:27:10;;;;;;;9.65;2.13;;;18.00;99.90;;;;;;5052856;28;20197;-81
2023/08/02 04:29:40;;;;;;;10.50;1.80;;;18.10;99.90;;;;;;5065904;28;20208;-81
2023/08/02 04:32:11;;;;;;;12.00;1.83;;;18.10;99.90;;;;;;5071086;28;20200;-82
2023/08/02 04:34:42;;;;;;;9.15;1.63;;;18.10;99.90;;;;;;5065015;28;20207;-80
2023/08/02 04:37:15;;;;;;;6.75;1.77;;;18.10;99.90;;;;;;5054172;28;20204;-81
2023/08/02 04:39:45;;;;;;;12.90;1.88;;;18.00;99.90;;;;;;5072892;28;20688;-81
2023/08/02 04:42:18;;;;;;;10.77;1.65;;;18.00;99.90;;;;;;5062474;28;20204;-79
2023/08/02 04:44:49;;;;;;;10.15;1.98;;;17.90;99.90;;;;;;5058323;28;20629;-78
2023/08/02 04:47:19;;;;;;;11.43;1.75;;;17.90;99.90;;;;;;5074928;28;20197;-81
2023/08/02 04:49:50;;;;;;;8.80;1.70;;;17.80;99.90;;;;;;5069383;28;20246;-74
2023/08/02 04:52:23;;;;;;;10.13;1.70;;;17.90;99.90;;;;;;5059838;28;20185;-80
2023/08/02 04:54:54;;;;;;;13.38;1.90;;;17.90;99.90;;;;;;5070926;28;20185;-74
2023/08/02 04:57:24;;;;;;;11.35;1.85;;;17.90;99.90;;;;;;5066776;28;20207;-81
2023/08/02 04:59:56;;;;;;;8.68;1.65;;;17.90;99.90;;;;;;5062403;28;20217;-73
2023/08/02 05:02:33;;;;;;;12.57;2.22;;;17.90;99.90;;;;;;5069341;28;20220;-76
2023/08/02 05:05:05;;;;;;;10.98;1.88;;;17.80;99.90;;;;;;5065333;28;20212;-76
2023/08/02 05:07:38;;;;;;;6.60;1.52;;;17.80;99.90;;;;;;5065074;28;20193;-78
2023/08/02 05:10:10;;;;;;;12.63;1.85;;;17.80;99.90;;;;;;5073876;28;20308;-80
2023/08/02 05:12:42;;;;;;;7.53;1.92;;;17.80;99.90;;;;;;5075763;28;20186;-81
2023/08/02 05:15:12;;;;;;;15.02;2.22;;;17.80;99.90;;;;;;5074096;28;20197;-80
2023/08/02 05:17:43;;;;;;;12.68;1.92;;;17.80;99.90;;;;;;5055891;28;20227;-78
2023/08/02 05:20:14;;;;;;;10.02;1.85;;;17.80;99.90;;;;;;5059758;28;20221;-79
2023/08/02 05:22:47;;;;;;;12.38;2.00;;;17.80;99.90;;;;;;5059903;28;20206;-80
2023/08/02 05:25:18;;;;;;;6.43;1.85;;;17.80;99.90;;;;;;5055790;28;20217;-79
2023/08/02 05:27:48;;;;;;;10.30;2.63;;;17.80;99.90;;;;;;5056738;28;20195;-72
2023/08/02 05:30:19;;;;;;;11.02;1.70;;;17.80;99.90;;;;;;5055727;28;20196;-78
2023/08/02 05:32:51;;;;;;;14.00;1.90;;;17.80;99.90;;;;;;5055654;28;20194;-78
2023/08/02 05:35:23;;;;;;;12.05;2.17;;;17.80;99.90;;;;;;5055642;28;20190;-76
2023/08/02 05:37:55;;;;;;;13.80;2.50;;;17.80;99.90;;;;;;5055537;28;20208;-82
2023/08/02 05:40:26;;;;;;;11.13;1.60;;;17.70;99.90;;;;;;5065831;28;20209;-83
2023/08/02 05:42:57;;;;;;;10.52;2.00;;;17.70;99.90;;;;;;5059610;28;20204;-82
2023/08/02 05:45:28;;;;;;;11.18;2.13;;;17.70;99.90;;;;;;5075465;28;20189;-74
2023/08/02 05:47:59;;;;;;;11.75;1.90;;;17.70;99.90;;;;;;5075314;28;20189;-75
2023/08/02 05:50:32;;;;;;;12.95;2.17;;;17.60;99.90;;;;;;5075300;28;20204;-74
2023/08/02 05:53:04;;;;;;;12.60;2.20;;;17.60;99.90;;;;;;5075308;28;20196;-72
2023/08/02 05:55:35;;;;;;;13.18;1.77;;;17.50;99.90;;;;;;5075396;28;20636;-76
2023/08/02 05:58:06;;;;;;;10.25;1.98;;;17.50;99.90;;;;;;5059420;28;20208;-75
2023/08/02 06:00:37;;;;;;;10.75;2.10;;;17.40;99.90;;;;;;5055117;28;20189;-78
2023/08/02 06:03:07;;;;;;;17.20;2.42;;;17.50;99.90;;;;;;5055134;28;20233;-81
2023/08/02 06:05:38;;;;;;;16.65;2.00;;;17.50;99.90;;;;;;5054905;28;20197;-82
2023/08/02 06:08:11;;;;;;;8.05;2.40;;;17.50;99.90;;;;;;5068369;28;20649;-75
2023/08/02 06:10:42;;;;;;;15.43;3.20;;;17.40;99.90;;;;;;5055314;28;20201;-81
2023/08/02 06:13:12;;;;;;;14.82;2.90;;;17.40;99.90;;;;;;5056808;28;20675;-83
2023/08/02 06:15:43;;;;;;;10.60;2.58;;;17.40;99.90;;;;;;5055946;28;20264;-76
2023/08/02 06:18:14;;;;;;;13.68;2.60;;;17.30;99.90;;;;;;5058587;28;20590;-73
2023/08/02 06:20:45;;;;;;;9.68;1.80;;;17.30;99.90;;;;;;5072036;28;20196;-73
2023/08/02 06:23:17;;;;;;;11.52;2.35;;;17.20;99.90;;;;;;5074576;28;20193;-79
2023/08/02 06:25:48;;;;;;;13.18;2.42;;;17.30;99.90;;;;;;5074702;28;20189;-74
2023/08/02 06:28:19;;;;;;;13.27;2.70;;;17.30;99.90;;;;;;5057081;28;20197;-78
2023/08/02 06:30:49;;;;;;;9.40;2.50;;;17.20;99.90;;;;;;5054714;28;20194;-77
2023/08/02 06:33:20;;;;;;;11.63;2.22;;;17.30;99.90;;;;;;5054766;28;20596;-79
2023/08/02 06:35:51;;;;;;;9.52;1.90;;;17.30;99.90;;;;;;5060560;28;20197;-72
2023/08/02 06:38:23;;;;;;;8.98;1.80;;;17.30;99.90;;;;;;5055891;28;20197;-78
2023/08/02 06:40:54;;;;;;;12.13;2.15;;;17.30;99.90;;;;;;5074594;28;20205;-82
2023/08/02 06:43:25;;;;;;;11.32;2.10;;;17.30;99.90;;;;;;5074080;28;20192;-79
2023/08/02 06:45:56;;;;;;;13.90;1.98;;;17.30;99.90;;;;;;5074194;28;20192;-80
2023/08/02 06:48:28;;;;;;;11.38;2.53;;;17.20;99.90;;;;;;5063052;28;20236;-78
2023/08/02 06:50:59;;;;;;;13.90;2.90;;;17.20;99.90;;;;;;5055897;28;20198;-80
2023/08/02 06:53:31;;;;;;;10.75;2.13;;;17.20;99.90;;;;;;5054128;28;20197;-81
2023/08/02 06:56:11;;;;;;;12.98;2.10;;;17.10;99.90;;;;;;5065351;28;20201;-73
2023/08/02 06:58:42;;;;;;;9.77;1.85;;;17.00;99.90;;;;;;5074164;28;20189;-71
2023/08/02 07:01:16;;;;;;;10.48;2.58;;;17.00;99.90;;;;;;5057098;28;20194;-79
2023/08/02 07:03:47;;;;;;;9.27;1.75;;;16.90;99.90;;;;;;5053965;28;20228;-78
2023/08/02 07:06:19;;;;;;;13.15;2.08;;;16.80;99.90;;;;;;5054337;28;20201;-74
2023/08/02 07:08:52;;;;;;;15.38;2.38;;;16.70;99.90;;;;;;5053068;28;20194;-76
2023/08/02 07:11:23;;;;;;;12.55;2.08;;;16.70;99.90;;;;;;5060495;28;20198;-77
2023/08/02 07:13:54;;;;;;;9.00;2.08;;;16.60;99.90;;;;;;5059891;28;20315;-72
2023/08/02 07:16:24;;;;;;;11.48;2.47;;;16.50;99.90;;;;;;5072073;28;20199;-80
2023/08/02 07:18:55;;;;;;;15.35;2.20;;;16.50;99.90;;;;;;5069733;28;20216;-76
2023/08/02 07:21:26;;;;;;;10.50;2.40;;;16.50;99.90;;;;;;5063539;28;21127;-80
2023/08/02 07:23:59;;;;;;;9.05;2.05;;;16.40;99.90;;;;;;5058376;28;20229;-75
2023/08/02 07:26:29;;;;;;;9.75;1.98;;;16.40;99.90;;;;;;5053920;28;20194;-77
2023/08/02 07:29:00;;;;;;;14.07;2.15;;;16.30;99.90;;;;;;5059193;28;20207;-77
2023/08/02 07:31:31;;;;;;;10.90;2.20;;;16.20;99.90;;;;;;5073626;28;20529;-73
2023/08/02 07:34:01;;;;;;;10.50;1.90;;;16.20;99.90;;;;;;5071374;28;20193;-73
2023/08/02 07:36:32;;;;;;;8.10;1.80;;;16.10;99.90;;;;;;5070960;28;20245;-78
2023/08/02 07:39:05;;;;;;;9.48;1.75;;;16.10;99.90;;;;;;5049299;28;20584;-79
2023/08/02 07:41:36;;;;;;;8.05;1.95;;;16.10;99.90;;;;;;5053234;28;20193;-79
2023/08/02 07:44:07;;;;;;;9.75;1.90;;;16.00;99.90;;;;;;5053104;28;20197;-77
2023/08/02 07:46:37;;;;;;;13.18;2.20;;;16.00;99.90;;;;;;5057524;28;20192;-80
2023/08/02 07:49:09;;;;;;;7.55;1.67;;;15.90;99.90;;;;;;5070675;28;20680;-73
2023/08/02 07:51:40;;;;;;;9.00;1.98;;;15.90;99.90;;;;;;5059852;28;20202;-72
2023/08/02 07:54:12;;;;;;;14.98;2.17;;;15.80;99.90;;;;;;5052824;28;20205;-72
2023/08/02 07:56:43;;;;;;;9.52;2.00;;;15.80;99.90;;;;;;5053039;28;20755;-73
2023/08/02 07:59:14;;;;;;;6.53;2.17;;;15.70;99.90;;;;;;5053329;28;20271;-80
2023/08/02 08:01:45;;;;;;;11.55;2.83;;;15.60;99.90;;;;;;5057568;28;20196;-80
2023/08/02 08:04:16;;;;;;;10.90;1.95;;;15.60;99.90;;;;;;5071245;28;20197;-75
2023/08/02 08:06:47;;;;;;;10.13;2.17;;;15.50;99.90;;;;;;5068907;28;20193;-80
2023/08/02 08:09:23;;;;;;;6.82;2.00;;;15.50;99.90;;;;;;5053617;28;20284;-74
2023/08/02 08:11:54;;;;;;;10.23;1.80;;;15.50;99.90;;;;;;5058027;28;20279;-74
2023/08/02 08:14:25;;;;;;;8.48;2.50;;;15.40;99.90;;;;;;5068398;28;20197;-72
2023/08/02 08:16:56;;;;;;;8.82;2.10;;;15.40;99.90;;;;;;5070251;28;20285;-78
2023/08/02 08:19:27;;;;;;;7.97;1.77;;;15.40;99.90;;;;;;5065648;28;20572;-81
2023/08/02 08:21:58;;;;;;;9.60;2.25;;;15.30;99.90;;;;;;5070994;28;20195;-72
2023/08/02 08:24:31;;;;;;;9.68;2.13;;;15.30;99.90;;;;;;5064801;28;20217;-72
2023/08/02 08:27:02;;;;;;;11.80;2.38;;;15.30;99.90;;;;;;5067961;28;20205;-76
2023/08/02 08:29:33;;;;;;;9.38;2.25;;;15.20;99.90;;;;;;5069569;28;20205;-80
2023/08/02 08:32:04;;;;;;;16.45;2.72;;;15.20;99.90;;;;;;5076669;28;20189;-80
2023/08/02 08:34:34;;;;;;;8.05;2.00;;;15.10;99.90;;;;;;5065623;28;20284;-79
2023/08/02 08:37:05;;;;;;;11.38;2.78;;;15.10;99.90;;;;;;5067965;28;20270;-81
2023/08/02 08:39:39;;;;;;;10.25;2.65;;;15.00;99.90;;;;;;5066220;28;20252;-82
2023/08/02 08:42:12;;;;;;;12.68;2.30;;;15.00;99.90;;;;;;5065693;28;20193;-77
2023/08/02 08:44:43;;;;;;;10.82;2.50;;;15.00;99.90;;;;;;5060604;28;20204;-72
2023/08/02 08:47:15;;;;;;;7.40;2.30;;;14.90;99.90;;;;;;5070959;28;20201;-72
2023/08/02 08:49:49;;;;;;;12.18;2.58;;;14.90;99.90;;;;;;5074800;28;20200;-76
2023/08/02 08:52:21;;;;;;;11.60;2.47;;;14.90;99.90;;;;;;5060743;28;20189;-77
2023/08/02 08:54:54;;;;;;;15.38;3.05;;;14.80;99.90;;;;;;5064208;28;20197;-76
2023/08/02 08:57:25;;;;;;;14.50;3.22;;;14.80;99.90;;;;;;5073508;28;20555;-77
2023/08/02 08:59:56;;;;;;;14.25;3.65;;;14.80;99.90;;;;;;5056581;28;20213;-78
2023/08/02 09:02:27;;;;;;;13.50;3.35;;;14.80;99.90;;;;;;5067298;28;20225;-81
2023/08/02 09:04:59;;;;;;;10.02;2.88;;;14.70;99.90;;;;;;5065390;28;20695;-78
2023/08/02 09:07:29;;;;;;;15.20;3.20;;;14.70;99.90;;;;;;5063870;28;20193;-79
2023/08/02 09:10:02;;;;;;;12.63;3.10;;;14.60;99.90;;;;;;5059011;28;20193;-83
2023/08/02 09:12:44;;;;;;;11.10;3.33;;;14.60;99.90;;;;;;5074071;28;20223;-80
2023/08/02 09:15:15;;;;;;;9.50;3.17;;;14.60;99.90;;;;;;5073925;28;20197;-80
2023/08/02 09:17:51;;;;;;;19.42;5.00;;;14.60;99.90;;;;;;5069994;28;20197;-80
2023/08/02 09:20:22;;;;;;;12.57;3.60;;;14.50;99.90;;;;;;5071173;28;20216;-79
2023/08/02 09:22:53;;;;;;;12.95;3.80;;;14.50;99.90;;;;;;5066385;28;20231;-78
2023/08/02 09:25:27;;;;;;;14.75;3.95;;;14.50;99.90;;;;;;5069145;28;20200;-82
2023/08/02 09:28:00;;;;;;;16.80;4.10;;;14.40;99.90;;;;;;5069296;28;20204;-80
2023/08/02 09:30:32;;;;;;;11.27;3.33;;;14.40;99.90;;;;;;5066675;28;20378;-81
2023/08/02 09:33:06;;;;;;;13.32;3.40;;;14.30;99.90;;;;;;5073002;28;20200;-80
2023/08/02 09:35:52;;;;;;;10.55;3.33;;;14.30;99.90;;;;;;5062870;28;20572;-79
2023/08/02 09:38:23;;;;;;;9.25;3.10;;;14.30;99.90;;;;;;5068523;28;20259;-79
2023/08/02 09:40:55;;;;;;;9.30;2.90;;;14.30;99.90;;;;;;5070797;28;20278;-76
2023/08/02 09:43:26;;;;;;;11.85;3.47;;;14.20;99.90;;;;;;5072560;28;20201;-82
2023/08/02 09:45:58;;;;;;;11.98;3.75;;;14.20;99.90;;;;;;5065195;28;20190;-79
2023/08/02 09:48:38;;;;;;;11.73;3.35;;;14.20;99.90;;;;;;5063830;28;20204;-79
2023/08/02 09:51:10;;;;;;;11.02;3.30;;;14.20;99.90;;;;;;5060686;28;20653;-80
2023/08/02 09:53:41;;;;;;;10.25;3.75;;;14.20;99.90;;;;;;5069246;28;20204;-80
2023/08/02 09:56:14;;;;;;;10.10;3.42;;;14.10;99.90;;;;;;5066514;28;20606;-80
2023/08/02 09:58:45;;;;;;;13.10;4.00;;;14.10;99.90;;;;;;5057544;28;20193;-79
2023/08/02 10:01:16;;;;;;;13.70;3.80;;;14.10;99.90;;;;;;5064489;28;20244;-80
2023/08/02 10:03:51;;;;;;;12.52;3.42;;;14.10;99.90;;;;;;5069151;28;20712;-79
2023/08/02 10:06:24;;;;;;;7.63;2.78;;;14.10;99.90;;;;;;5070726;28;20279;-81
2023/08/02 10:08:56;;;;;;;10.73;3.67;;;14.10;99.90;;;;;;5065775;28;20202;-79
2023/08/02 10:11:29;;;;;;;10.65;3.75;;;14.00;99.90;;;;;;5060993;28;20666;-76
2023/08/02 10:14:00;;;;;;;12.18;4.00;;;14.00;99.90;;;;;;5070591;28;20199;-82
2023/08/02 10:16:31;;;;;;;13.13;4.07;;;14.00;99.90;;;;;;5073039;28;20660;-78
2023/08/02 10:19:03;;;;;;;11.27;4.28;;;14.00;99.90;;;;;;5060289;28;20213;-79
2023/08/02 10:21:35;;;;;;;13.07;4.40;;;13.90;99.90;;;;;;5065486;28;20238;-80
2023/08/02 10:24:07;;;;;;;9.93;3.78;;;13.90;99.90;;;;;;5057975;28;20556;-79
2023/08/02 10:26:40;;;;;;;12.07;4.55;;;13.90;99.90;;;;;;5059566;28;20649;-79
2023/08/02 10:29:11;;;;;;;13.98;4.25;;;13.90;99.90;;;;;;5065062;28;20197;-81
2023/08/02 10:31:42;;;;;;;11.32;4.20;;;13.90;99.90;;;;;;5057037;28;20197;-78
2023/08/02 10:34:50;;;;;;;15.95;4.50;;;13.90;99.90;;;;;;5060680;28;20197;-78
2023/08/02 10:37:22;;;;;;;9.10;4.20;;;13.80;99.90;;;;;;5053342;28;20220;-80
2023/08/02 10:39:59;;;;;;;13.82;4.10;;;13.80;99.90;;;;;;5058345;28;20196;-80
2023/08/02 10:42:52;;;;;;;11.32;3.90;;;13.80;99.90;;;;;;5060466;28;20282;-80
2023/08/02 10:45:23;;;;;;;14.63;4.60;;;13.80;99.90;;;;;;5072536;28;20197;-79
2023/08/02 10:47:54;;;;;;;9.60;3.95;;;13.80;99.90;;;;;;5073166;28;20189;-79
2023/08/02 10:50:49;;;;;;;11.60;3.97;;;13.70;99.90;;;;;;5074187;28;20228;-73
2023/08/02 10:53:20;;;;;;;12.57;4.10;;;13.70;99.90;;;;;;5071240;28;20189;-79
2023/08/02 10:56:16;;;;;;;12.30;4.03;;;13.70;99.90;;;;;;5074253;28;20192;-78
2023/08/02 10:58:56;;;;;;;10.88;3.95;;;13.70;99.90;;;;;;5073932;28;20645;-76
2023/08/02 11:01:27;;;;;;;11.57;4.13;;;13.70;99.90;;;;;;5071648;28;20679;-78
2023/08/02 11:04:00;;;;;;;9.30;3.58;;;13.60;99.90;;;;;;5067537;28;20287;-75
2023/08/02 11:06:33;;;;;;;10.70;4.00;;;13.60;99.90;;;;;;5053979;28;20247;-77
2023/08/02 11:09:04;;;;;;;10.00;4.13;;;13.60;99.90;;;;;;5054293;28;20190;-76
2023/08/02 11:11:36;;;;;;;10.07;3.92;;;13.60;99.90;;;;;;5054255;28;20186;-79
2023/08/02 11:14:09;;;;;;;11.60;4.38;;;13.60;99.90;;;;;;5066984;28;20192;-75
2023/08/02 11:16:45;;;;;;;12.80;3.95;;;13.60;99.90;;;;;;5073815;28;20721;-75
2023/08/02 11:19:16;;;;;;;11.30;4.00;;;13.60;99.90;;;;;;5073228;28;20239;-77
2023/08/02 11:21:56;;;;;;;10.73;4.15;;;13.60;99.90;;;;;;5054687;28;20239;-78
2023/08/02 11:24:27;;;;;;;12.43;4.63;;;13.50;99.90;;;;;;5062073;28;20217;-76
2023/08/02 11:26:59;;;;;;;12.98;3.97;;;13.50;99.90;;;;;;5054082;28;20189;-76
2023/08/02 11:29:33;;;;;;;10.57;4.35;;;13.50;99.90;;;;;;5054582;28;20189;-72
2023/08/02 11:32:08;;;;;;;13.10;4.53;;;13.50;99.90;;;;;;5053711;28;20275;-71
2023/08/02 11:34:44;;;;;;;13.45;4.82;;;13.50;99.90;;;;;;5070158;28;20200;-79
2023/08/02 11:37:15;;;;;;;13.27;4.40;;;13.50;99.90;;;;;;5063878;28;20250;-73
2023/08/02 11:39:54;;;;;;;13.05;4.43;;;13.50;99.90;;;;;;5054009;28;20190;-74
2023/08/02 11:42:28;;;;;;;9.23;3.97;;;13.50;99.90;;;;;;5053522;28;20193;-73
2023/08/02 11:45:04;;;;;;;10.48;3.63;;;13.40;99.90;;;;;;5053380;28;20277;-74
2023/08/02 11:47:40;;;;;;;13.38;3.78;;;13.40;99.90;;;;;;5053533;28;20219;-80
2023/08/02 11:50:14;;;;;;;13.07;3.90;;;13.40;99.90;;;;;;5053874;28;20272;-75
2023/08/02 11:52:46;;;;;;;10.23;3.90;;;13.40;99.90;;;;;;5060580;28;20190;-79
2023/08/02 11:55:21;;;;;;;7.93;3.13;;;13.40;99.90;;;;;;5070293;28;20284;-79
2023/08/02 11:57:54;;;;;;;11.75;3.60;;;13.30;99.90;;;;;;5069764;28;20555;-74
2023/08/02 12:00:34;;;;;;;10.25;3.53;;;13.30;99.90;;;;;;5058199;28;20259;-72
2023/08/02 12:03:17;;;;;;;12.55;3.60;;;13.30;99.90;;;;;;5071188;28;20664;-74
2023/08/02 12:05:50;;;;;;;14.38;3.90;;;13.30;99.90;;;;;;5067443;28;20185;-72
2023/08/02 12:08:23;;;;;;;12.25;3.97;;;13.30;99.90;;;;;;5073173;28;20189;-73
2023/08/02 12:10:54;;;;;;;10.27;4.03;;;13.30;99.90;;;;;;5067742;28;20215;-72
2023/08/02 12:13:25;;;;;;;11.27;3.80;;;13.20;99.90;;;;;;5068118;28;20219;-73
2023/08/02 12:16:10;;;;;;;8.95;3.55;;;13.20;99.90;;;;;;5069163;28;20204;-78
2023/08/02 12:18:53;;;;;;;11.70;3.70;;;13.20;99.90;;;;;;5061679;28;20196;-78
2023/08/02 12:21:25;;;;;;;11.98;3.70;;;13.20;99.90;;;;;;5054234;28;20217;-73
2023/08/02 12:23:55;;;;;;;10.57;3.80;;;13.10;99.90;;;;;;5053033;28;20217;-73
2023/08/02 12:26:33;;;;;;;11.80;3.50;;;13.10;99.90;;;;;;5053314;28;20201;-77
2023/08/02 12:29:05;;;;;;;11.13;3.90;;;13.10;99.90;;;;;;5052367;28;20593;-79
2023/08/02 12:31:46;;;;;;;10.60;3.95;;;13.10;99.90;;;;;;5056604;28;20196;-78
2023/08/02 12:34:17;;;;;;;10.10;3.60;;;13.10;99.90;;;;;;5057430;28;20665;-75
2023/08/02 12:36:50;;;;;;;9.95;4.03;;;13.10;99.90;;;;;;5068483;28;20197;-79
2023/08/02 12:39:22;;;;;;;11.68;3.67;;;13.00;99.90;;;;;;5056292;28;20205;-78
2023/08/02 12:41:53;;;;;;;9.98;3.30;;;13.00;99.90;;;;;;5067958;28;20300;-79
2023/08/02 12:44:23;;;;;;;10.95;3.58;;;13.00;99.90;;;;;;5058608;28;20198;-74
2023/08/02 12:46:56;;;;;;;10.98;3.60;;;12.90;99.90;;;;;;5052587;28;20194;-79
2023/08/02 12:49:27;;;;;;;10.48;4.43;;;12.90;99.90;;;;;;5051972;28;20194;-73
2023/08/02 12:51:57;;;;;;;11.38;4.72;;;12.90;99.90;;;;;;5066438;28;20202;-72
2023/08/02 12:54:28;;;;;;;9.07;4.13;;;12.90;99.90;;;;;;5052713;28;20189;-72
2023/08/02 12:56:59;;;;;;;12.13;4.60;;;12.90;99.90;;;;;;5052868;28;20201;-73
2023/08/02 12:59:29;;;;;;;15.45;4.47;;;12.90;99.90;;;;;;5052578;28;20193;-73
2023/08/02 13:02:02;;;;;;;22.38;5.50;;;12.80;99.90;;;;;;5055413;28;20236;-74
2023/08/02 13:04:33;;;;;;;13.40;4.82;;;12.80;99.90;;;;;;5068415;28;20203;-76